createdAt,value
2023-02-27T00:01:41.315Z,-2.19
2023-02-27T00:04:07.792Z,-2.17
2023-02-27T00:06:34.228Z,-2.15
2023-02-27T00:09:00.630Z,-2.13
2023-02-27T00:11:27.758Z,-2.13
2023-02-27T00:13:54.445Z,-2.15
2023-02-27T00:16:20.944Z,-2.17
2023-02-27T00:18:47.372Z,-2.19
2023-02-27T00:21:13.793Z,-2.30
2023-02-27T00:23:40.192Z,-2.16
2023-02-27T00:26:06.825Z,-2.14
2023-02-27T00:28:33.266Z,-2.13
2023-02-27T00:30:59.786Z,-2.14
2023-02-27T00:33:26.783Z,-2.20
2023-02-27T00:36:00.614Z,-2.25
2023-02-27T00:38:27.520Z,-2.31
2023-02-27T00:40:55.129Z,-2.35
2023-02-27T00:43:21.758Z,-2.38
2023-02-27T00:45:49.686Z,-2.38
2023-02-27T00:48:16.302Z,-2.39
2023-02-27T00:50:43.292Z,-2.43
2023-02-27T00:53:10.041Z,-2.42
2023-02-27T00:55:36.556Z,-2.47
2023-02-27T00:58:03.242Z,-2.46
2023-02-27T01:00:31.031Z,-2.48
2023-02-27T01:02:57.513Z,-2.49
2023-02-27T01:05:24.080Z,-2.48
2023-02-27T01:07:51.052Z,-2.48
2023-02-27T01:10:17.745Z,-2.50
2023-02-27T01:12:44.318Z,-2.49
2023-02-27T01:15:12.183Z,-2.49
2023-02-27T01:17:38.645Z,-2.48
2023-02-27T01:20:06.374Z,-2.50
2023-02-27T01:22:33.349Z,-2.51
2023-02-27T01:25:00.254Z,-2.51
2023-02-27T01:27:26.906Z,-2.53
2023-02-27T01:29:53.432Z,-2.54
2023-02-27T01:32:19.943Z,-2.53
2023-02-27T01:34:46.453Z,-2.56
2023-02-27T01:37:13.020Z,-2.53
2023-02-27T01:39:42.615Z,-2.52
2023-02-27T01:42:26.713Z,-2.51
2023-02-27T01:45:20.318Z,-2.52
2023-02-27T01:47:54.208Z,-2.54
2023-02-27T01:50:20.823Z,-2.57
2023-02-27T01:52:56.421Z,-2.53
2023-02-27T01:55:25.805Z,-2.54
2023-02-27T01:57:53.136Z,-2.55
2023-02-27T02:00:20.066Z,-2.54
2023-02-27T02:03:19.389Z,-2.55
2023-02-27T02:05:49.773Z,-2.56
2023-02-27T02:08:22.971Z,-2.59
2023-02-27T02:10:53.417Z,-2.63
2023-02-27T02:13:21.732Z,-2.64
2023-02-27T02:15:56.699Z,-2.66
2023-02-27T02:18:42.205Z,-2.70
2023-02-27T02:21:42.873Z,-2.69
2023-02-27T02:24:15.423Z,-2.70
2023-02-27T02:26:57.774Z,-2.70
2023-02-27T02:29:36.178Z,-2.71
2023-02-27T02:32:36.487Z,-2.72
2023-02-27T02:35:32.398Z,-2.76
2023-02-27T02:38:16.858Z,-2.75
2023-02-27T02:40:58.476Z,-2.75
2023-02-27T02:43:40.777Z,-2.73
2023-02-27T02:46:20.138Z,-2.78
2023-02-27T02:49:36.632Z,-2.77
2023-02-27T02:52:12.777Z,-2.79
2023-02-27T02:54:57.781Z,-2.82
2023-02-27T02:57:33.618Z,-2.83
2023-02-27T03:00:11.722Z,-2.87
2023-02-27T03:02:45.881Z,-2.92
2023-02-27T03:05:20.680Z,-2.90
2023-02-27T03:07:59.373Z,-2.87
2023-02-27T03:10:49.613Z,-2.85
2023-02-27T03:13:39.136Z,-2.84
2023-02-27T03:16:17.598Z,-2.90
2023-02-27T03:18:50.460Z,-2.88
2023-02-27T03:21:25.847Z,-2.87
2023-02-27T03:23:56.793Z,-2.86
2023-02-27T03:26:32.850Z,-2.84
2023-02-27T03:29:03.930Z,-2.86
2023-02-27T03:32:23.161Z,-2.85
2023-02-27T03:34:50.153Z,-2.92
2023-02-27T03:37:53.213Z,-2.90
2023-02-27T03:40:34.421Z,-2.90
2023-02-27T03:43:14.329Z,-2.91
2023-02-27T03:45:56.366Z,-2.93
2023-02-27T03:48:22.921Z,-2.94
2023-02-27T03:50:49.553Z,-2.97
2023-02-27T03:53:31.325Z,-2.98
2023-02-27T03:56:00.112Z,-3.03
2023-02-27T03:58:26.848Z,-3.01
2023-02-27T04:00:53.423Z,-3.00
2023-02-27T04:03:21.070Z,-3.01
2023-02-27T04:05:47.910Z,-3.02
2023-02-27T04:08:52.368Z,-2.97
2023-02-27T04:11:45.359Z,-2.97
2023-02-27T04:14:35.237Z,-2.97
2023-02-27T04:17:34.073Z,-2.99
2023-02-27T04:20:10.482Z,-3.02
2023-02-27T04:22:58.349Z,-3.02
2023-02-27T04:26:08.010Z,-3.02
2023-02-27T04:28:53.111Z,-3.07
2023-02-27T04:31:53.668Z,-3.12
2023-02-27T04:34:25.929Z,-3.10
2023-02-27T04:37:01.327Z,-3.09
2023-02-27T04:39:37.657Z,-3.11
2023-02-27T04:42:10.032Z,-3.15
2023-02-27T04:44:39.538Z,-3.15
2023-02-27T04:47:08.970Z,-3.16
2023-02-27T04:49:40.468Z,-3.16
2023-02-27T04:52:14.036Z,-3.16
2023-02-27T04:54:47.367Z,-3.14
2023-02-27T04:57:19.602Z,-3.13
2023-02-27T04:59:50.663Z,-3.12
2023-02-27T05:02:29.119Z,-3.13
2023-02-27T05:04:59.633Z,-3.15
2023-02-27T05:07:37.244Z,-3.14
2023-02-27T05:10:14.407Z,-3.17
2023-02-27T05:12:48.692Z,-3.20
2023-02-27T05:15:40.617Z,-3.16
2023-02-27T05:18:10.122Z,-3.17
2023-02-27T05:20:53.086Z,-3.17
2023-02-27T05:23:28.660Z,-3.17
2023-02-27T05:26:01.513Z,-3.17
2023-02-27T05:28:36.336Z,-3.16
2023-02-27T05:31:15.303Z,-3.19
2023-02-27T05:33:49.316Z,-3.20
2023-02-27T05:36:24.833Z,-3.19
2023-02-27T05:38:59.811Z,-3.20
2023-02-27T05:41:31.840Z,-3.16
2023-02-27T05:44:22.356Z,-3.13
2023-02-27T05:47:01.069Z,-3.16
2023-02-27T05:49:35.103Z,-3.16
2023-02-27T05:52:05.334Z,-3.14
2023-02-27T05:54:50.374Z,-3.13
2023-02-27T05:57:23.882Z,-3.13
2023-02-27T05:59:59.960Z,-3.15
2023-02-27T06:02:26.781Z,-3.17
2023-02-27T06:04:54.340Z,-3.16
2023-02-27T06:07:20.899Z,-3.13
2023-02-27T06:09:47.957Z,-3.19
2023-02-27T06:12:14.365Z,-3.14
2023-02-27T06:14:40.801Z,-3.14
2023-02-27T06:17:07.371Z,-3.13
2023-02-27T06:19:33.855Z,-3.11
2023-02-27T06:22:00.297Z,-3.13
2023-02-27T06:24:26.787Z,-3.14
2023-02-27T06:26:53.453Z,-3.13
2023-02-27T06:29:19.842Z,-3.09
2023-02-27T06:31:46.380Z,-3.08
2023-02-27T06:34:12.796Z,-3.10
2023-02-27T06:36:39.361Z,-3.06
2023-02-27T06:39:06.674Z,-3.05
2023-02-27T06:41:33.182Z,-3.02
2023-02-27T06:43:59.664Z,-2.97
2023-02-27T06:46:26.723Z,-2.97
2023-02-27T06:48:53.380Z,-2.97
2023-02-27T06:51:19.842Z,-2.96
2023-02-27T06:53:46.353Z,-3.02
2023-02-27T06:56:12.785Z,-2.99
2023-02-27T06:58:39.190Z,-2.97
2023-02-27T07:01:05.601Z,-2.97
2023-02-27T07:03:32.131Z,-2.99
2023-02-27T07:05:59.038Z,-2.95
2023-02-27T07:08:25.519Z,-2.92
2023-02-27T07:10:51.927Z,-2.87
2023-02-27T07:13:19.710Z,-2.83
2023-02-27T07:15:46.582Z,-2.80
2023-02-27T07:18:13.141Z,-2.76
2023-02-27T07:20:40.220Z,-2.71
2023-02-27T07:23:06.729Z,-2.66
2023-02-27T07:25:33.169Z,-2.63
2023-02-27T07:27:59.578Z,-2.55
2023-02-27T07:30:26.451Z,-2.50
2023-02-27T07:32:52.890Z,-2.45
2023-02-27T07:35:19.491Z,-2.38
2023-02-27T07:37:47.256Z,-2.30
2023-02-27T07:40:14.785Z,-2.24
2023-02-27T07:42:41.337Z,-2.14
2023-02-27T07:45:08.800Z,-2.10
2023-02-27T07:47:35.557Z,-2.14
2023-02-27T07:50:01.986Z,-1.98
2023-02-27T07:55:00.035Z,-1.85
2023-02-27T07:57:26.460Z,-1.82
2023-02-27T07:59:52.825Z,-1.70
2023-02-27T08:02:19.326Z,-1.66
2023-02-27T08:04:45.808Z,-1.62
2023-02-27T08:07:12.283Z,-1.54
2023-02-27T08:09:38.700Z,-1.44
2023-02-27T08:12:05.225Z,-1.34
2023-02-27T08:14:31.616Z,-1.24
2023-02-27T08:16:58.017Z,-1.14
2023-02-27T08:19:24.390Z,-1.03
2023-02-27T08:21:50.828Z,-0.94
2023-02-27T08:24:17.697Z,-0.82
2023-02-27T08:26:44.460Z,-0.70
2023-02-27T08:29:10.857Z,-0.57
2023-02-27T08:31:37.348Z,-0.49
2023-02-27T08:34:10.405Z,-0.36
2023-02-27T08:36:37.241Z,-0.24
2023-02-27T08:39:04.260Z,-0.13
2023-02-27T08:41:30.656Z,-0.02
2023-02-27T08:43:57.086Z,0.06
2023-02-27T08:46:23.525Z,0.17
2023-02-27T08:48:49.967Z,0.27
2023-02-27T08:51:16.522Z,0.31
2023-02-27T08:53:43.048Z,0.37
2023-02-27T08:56:09.716Z,0.43
2023-02-27T08:58:36.246Z,0.53
2023-02-27T09:01:03.200Z,0.60
2023-02-27T09:03:29.715Z,0.81
2023-02-27T09:05:56.320Z,0.88
2023-02-27T09:08:23.800Z,0.95
2023-02-27T09:10:50.347Z,0.98
2023-02-27T09:13:17.076Z,1.03
2023-02-27T09:15:43.505Z,1.27
2023-02-27T09:18:09.973Z,1.38
2023-02-27T09:20:36.384Z,1.50
2023-02-27T09:23:03.808Z,1.55
2023-02-27T09:25:30.240Z,1.64
2023-02-27T09:27:56.677Z,1.69
2023-02-27T09:30:23.301Z,1.67
2023-02-27T09:32:50.482Z,1.70
2023-02-27T09:35:17.599Z,1.71
2023-02-27T09:37:44.192Z,1.81
2023-02-27T09:40:20.370Z,2.03
2023-02-27T09:42:48.527Z,2.21
2023-02-27T09:45:26.374Z,2.41
2023-02-27T09:47:56.558Z,2.61
2023-02-27T09:50:47.970Z,2.80
2023-02-27T09:53:23.563Z,2.93
2023-02-27T09:55:50.248Z,3.09
2023-02-27T09:58:55.049Z,3.24
2023-02-27T10:01:23.418Z,3.43
2023-02-27T10:04:18.651Z,3.56
2023-02-27T10:06:53.118Z,3.73
2023-02-27T10:09:38.449Z,3.81
2023-02-27T10:12:23.858Z,3.75
2023-02-27T10:14:59.403Z,3.48
2023-02-27T10:17:30.797Z,3.28
2023-02-27T10:19:58.355Z,3.11
2023-02-27T10:22:30.222Z,3.28
2023-02-27T10:25:03.006Z,3.56
2023-02-27T10:27:31.230Z,3.64
2023-02-27T10:30:23.581Z,3.59
2023-02-27T10:33:33.920Z,3.49
2023-02-27T10:36:02.810Z,3.18
2023-02-27T10:38:34.733Z,2.97
2023-02-27T10:41:03.207Z,2.75
2023-02-27T10:43:29.985Z,2.64
2023-02-27T10:46:03.105Z,2.48
2023-02-27T10:48:32.024Z,2.41
2023-02-27T10:51:26.337Z,2.33
2023-02-27T10:54:18.398Z,2.36
2023-02-27T10:56:47.714Z,2.37
2023-02-27T10:59:23.954Z,2.34
2023-02-27T11:01:58.324Z,2.29
2023-02-27T11:04:39.862Z,2.32
2023-02-27T11:07:09.213Z,2.33
2023-02-27T11:09:37.105Z,2.71
2023-02-27T11:12:31.695Z,3.34
2023-02-27T11:15:01.234Z,3.38
2023-02-27T11:17:34.006Z,3.55
2023-02-27T11:20:02.563Z,3.67
2023-02-27T11:22:31.058Z,3.50
2023-02-27T11:25:21.349Z,3.26
2023-02-27T11:27:48.461Z,3.06
2023-02-27T11:30:27.953Z,2.95
2023-02-27T11:32:59.719Z,2.88
2023-02-27T11:35:30.245Z,2.92
2023-02-27T11:38:16.598Z,2.95
2023-02-27T11:40:51.068Z,2.86
2023-02-27T11:43:21.602Z,2.96
2023-02-27T11:46:04.168Z,2.88
2023-02-27T11:48:46.256Z,2.86
2023-02-27T11:51:30.865Z,2.94
2023-02-27T11:54:20.736Z,3.13
2023-02-27T11:56:59.979Z,3.67
2023-02-27T11:59:38.674Z,3.49
2023-02-27T12:02:15.742Z,3.15
2023-02-27T12:04:55.362Z,2.84
2023-02-27T12:07:28.271Z,2.61
2023-02-27T12:10:06.488Z,2.58
2023-02-27T12:12:44.849Z,2.63
2023-02-27T12:15:52.799Z,2.69
2023-02-27T12:18:35.638Z,2.67
2023-02-27T12:21:15.988Z,2.68
2023-02-27T12:23:57.452Z,2.70
2023-02-27T12:26:31.742Z,2.76
2023-02-27T12:29:04.725Z,2.75
2023-02-27T12:31:36.949Z,2.81
2023-02-27T12:34:25.868Z,2.81
2023-02-27T12:36:53.752Z,2.83
2023-02-27T12:39:23.641Z,2.88
2023-02-27T12:42:07.464Z,2.81
2023-02-27T12:44:49.455Z,2.70
2023-02-27T12:47:30.481Z,2.58
2023-02-27T12:50:24.433Z,2.47
2023-02-27T12:53:27.988Z,2.41
2023-02-27T12:56:06.121Z,2.43
2023-02-27T12:59:16.095Z,2.61
2023-02-27T13:01:56.220Z,2.72
2023-02-27T13:04:42.246Z,2.78
2023-02-27T13:07:18.033Z,2.73
2023-02-27T13:09:50.390Z,2.73
2023-02-27T13:12:41.421Z,2.56
2023-02-27T13:15:18.125Z,2.38
2023-02-27T13:17:49.491Z,2.19
2023-02-27T13:20:18.845Z,2.08
2023-02-27T13:23:33.461Z,2.64
2023-02-27T13:26:05.464Z,3.57
2023-02-27T13:28:32.418Z,4.43
2023-02-27T13:31:19.552Z,4.71
2023-02-27T13:33:55.446Z,4.38
2023-02-27T13:36:30.165Z,3.90
2023-02-27T13:38:56.871Z,3.43
2023-02-27T13:41:23.243Z,3.19
2023-02-27T13:43:57.870Z,3.14
2023-02-27T13:46:28.489Z,2.98
2023-02-27T13:49:20.039Z,3.03
2023-02-27T13:51:59.299Z,3.67
2023-02-27T13:54:30.441Z,4.31
2023-02-27T13:56:59.486Z,4.80
2023-02-27T13:59:30.363Z,5.01
2023-02-27T14:02:03.636Z,4.72
2023-02-27T14:04:36.809Z,4.51
2023-02-27T14:07:10.865Z,4.18
2023-02-27T14:09:44.763Z,3.82
2023-02-27T14:12:44.181Z,3.29
2023-02-27T14:15:23.706Z,3.26
2023-02-27T14:17:59.625Z,3.05
2023-02-27T14:20:32.576Z,2.96
2023-02-27T14:23:17.487Z,2.77
2023-02-27T14:25:53.093Z,2.62
2023-02-27T14:28:26.039Z,2.50
2023-02-27T14:30:58.116Z,2.57
2023-02-27T14:33:39.726Z,2.66
2023-02-27T14:36:19.061Z,2.76
2023-02-27T14:38:46.341Z,2.67
2023-02-27T14:41:34.329Z,2.56
2023-02-27T14:44:01.124Z,2.48
2023-02-27T14:46:40.038Z,2.43
2023-02-27T14:49:31.438Z,2.35
2023-02-27T14:52:10.782Z,2.23
2023-02-27T14:54:37.176Z,2.13
2023-02-27T14:57:05.769Z,1.98
2023-02-27T14:59:44.002Z,1.80
2023-02-27T15:02:27.528Z,1.75
2023-02-27T15:05:13.618Z,1.69
2023-02-27T15:07:40.490Z,1.59
2023-02-27T15:10:09.381Z,1.54
2023-02-27T15:12:39.897Z,1.49
2023-02-27T15:15:08.989Z,1.48
2023-02-27T15:17:41.433Z,1.50
2023-02-27T15:20:31.520Z,1.50
2023-02-27T15:23:02.784Z,1.40
2023-02-27T15:25:38.033Z,1.38
2023-02-27T15:28:08.038Z,1.35
2023-02-27T15:30:34.594Z,1.37
2023-02-27T15:33:02.853Z,1.37
2023-02-27T15:35:37.684Z,1.31
2023-02-27T15:38:04.594Z,1.28
2023-02-27T15:40:33.174Z,1.19
2023-02-27T15:43:01.178Z,1.07
2023-02-27T15:45:31.993Z,1.06
2023-02-27T15:47:58.648Z,0.99
2023-02-27T15:50:33.274Z,1.00
2023-02-27T15:53:18.443Z,0.95
2023-02-27T15:55:51.345Z,0.95
2023-02-27T15:58:46.724Z,0.98
2023-02-27T16:01:19.114Z,0.91
2023-02-27T16:03:48.699Z,0.91
2023-02-27T16:06:21.687Z,0.84
2023-02-27T16:08:54.263Z,0.70
2023-02-27T16:11:25.754Z,0.68
2023-02-27T16:13:52.770Z,0.63
2023-02-27T16:16:28.793Z,0.62
2023-02-27T16:18:58.524Z,0.62
2023-02-27T16:21:31.013Z,0.62
2023-02-27T16:24:18.083Z,0.60
2023-02-27T16:26:51.237Z,0.54
2023-02-27T16:29:27.834Z,0.50
2023-02-27T16:31:58.265Z,0.44
2023-02-27T16:34:46.105Z,0.46
2023-02-27T16:37:29.160Z,0.48
2023-02-27T16:39:55.618Z,0.46
2023-02-27T16:42:22.495Z,0.42
2023-02-27T16:44:49.062Z,0.39
2023-02-27T16:47:15.515Z,0.35
2023-02-27T16:49:44.280Z,0.33
2023-02-27T16:52:12.060Z,0.30
2023-02-27T16:54:38.643Z,0.31
2023-02-27T16:57:05.132Z,0.21
2023-02-27T16:59:39.717Z,0.31
2023-02-27T17:02:11.075Z,0.21
2023-02-27T17:04:37.500Z,0.22
2023-02-27T17:07:06.529Z,0.15
2023-02-27T17:09:33.525Z,0.16
2023-02-27T17:11:59.943Z,0.07
2023-02-27T17:14:26.430Z,0.06
2023-02-27T17:16:53.006Z,0.07
2023-02-27T17:19:21.366Z,0.06
2023-02-27T17:21:48.305Z,0.04
2023-02-27T17:24:14.738Z,-0.01
2023-02-27T17:26:41.176Z,-0.06
2023-02-27T17:29:09.535Z,-0.10
2023-02-27T17:31:37.041Z,-0.10
2023-02-27T17:34:05.089Z,-0.16
2023-02-27T17:36:31.592Z,-0.14
2023-02-27T17:39:01.636Z,-0.17
2023-02-27T17:41:30.141Z,-0.20
2023-02-27T17:43:58.328Z,-0.24
2023-02-27T17:46:27.001Z,-0.28
2023-02-27T17:48:56.093Z,-0.28
2023-02-27T17:51:22.935Z,-0.35
2023-02-27T17:53:49.329Z,-0.31
2023-02-27T17:56:15.785Z,-0.33
2023-02-27T17:58:45.325Z,-0.41
2023-02-27T18:01:15.133Z,-0.32
2023-02-27T18:03:41.762Z,-0.34
2023-02-27T18:06:08.732Z,-0.37
2023-02-27T18:08:35.185Z,-0.39
2023-02-27T18:11:02.079Z,-0.43
2023-02-27T18:13:28.654Z,-0.41
2023-02-27T18:15:56.522Z,-0.40
2023-02-27T18:18:23.656Z,-0.43
2023-02-27T18:21:00.675Z,-0.42
2023-02-27T18:23:27.257Z,-0.41
2023-02-27T18:25:55.648Z,-0.41
2023-02-27T18:28:22.758Z,-0.44
2023-02-27T18:30:49.492Z,-0.39
2023-02-27T18:33:16.008Z,-0.40
2023-02-27T18:35:42.625Z,-0.40
2023-02-27T18:38:09.076Z,-0.37
2023-02-27T18:40:35.509Z,-0.34
2023-02-27T18:43:01.922Z,-0.34
2023-02-27T18:45:29.638Z,-0.33
2023-02-27T18:47:57.159Z,-0.34
2023-02-27T18:50:25.097Z,-0.35
2023-02-27T18:52:51.588Z,-0.37
2023-02-27T18:55:18.133Z,-0.40
2023-02-27T18:57:45.061Z,-0.45
2023-02-27T19:00:12.774Z,-0.43
2023-02-27T19:02:41.589Z,-0.39
2023-02-27T19:05:11.026Z,-0.43
2023-02-27T19:07:38.606Z,-0.49
2023-02-27T19:10:07.371Z,-0.49
2023-02-27T19:12:33.897Z,-0.47
2023-02-27T19:15:00.351Z,-0.42
2023-02-27T19:17:27.279Z,-0.43
2023-02-27T19:19:53.810Z,-0.43
2023-02-27T19:22:20.428Z,-0.46
2023-02-27T19:24:47.100Z,-0.48
2023-02-27T19:27:13.822Z,-0.52
2023-02-27T19:29:40.218Z,-0.56
2023-02-27T19:32:08.250Z,-0.56
2023-02-27T19:34:34.710Z,-0.53
2023-02-27T19:37:01.180Z,-0.55
2023-02-27T19:39:27.648Z,-0.52
2023-02-27T19:41:54.113Z,-0.53
2023-02-27T19:44:20.640Z,-0.50
2023-02-27T19:46:51.297Z,-0.52
2023-02-27T19:49:18.032Z,-0.57
2023-02-27T19:51:44.643Z,-0.61
2023-02-27T19:54:15.511Z,-0.61
2023-02-27T19:56:42.660Z,-0.61
2023-02-27T19:59:11.801Z,-0.62
2023-02-27T20:01:39.545Z,-0.63
2023-02-27T20:04:07.017Z,-0.67
2023-02-27T20:06:43.848Z,-0.63
2023-02-27T20:09:15.908Z,-0.64
2023-02-27T20:11:47.215Z,-0.62
2023-02-27T20:14:15.598Z,-0.62
2023-02-27T20:16:42.225Z,-0.67
2023-02-27T20:19:12.782Z,-0.67
2023-02-27T20:21:39.379Z,-0.63
2023-02-27T20:24:06.064Z,-0.62
2023-02-27T20:26:36.166Z,-0.63
2023-02-27T20:29:06.435Z,-0.62
2023-02-27T20:31:36.151Z,-0.65
2023-02-27T20:34:05.858Z,-0.66
2023-02-27T20:36:34.522Z,-0.69
2023-02-27T20:39:01.178Z,-0.77
2023-02-27T20:41:29.764Z,-0.75
2023-02-27T20:43:57.254Z,-0.80
2023-02-27T20:46:27.823Z,-0.83
2023-02-27T20:49:00.356Z,-0.87
2023-02-27T20:51:30.870Z,-0.96
2023-02-27T20:53:59.756Z,-0.92
2023-02-27T20:56:34.492Z,-0.96
2023-02-27T20:59:06.121Z,-1.01
2023-02-27T21:01:33.248Z,-1.07
2023-02-27T21:03:59.947Z,-1.05
2023-02-27T21:06:26.870Z,-1.05
2023-02-27T21:08:56.285Z,-1.07
2023-02-27T21:11:27.108Z,-1.09
2023-02-27T21:13:55.090Z,-1.10
2023-02-27T21:16:21.728Z,-1.09
2023-02-27T21:18:51.981Z,-1.15
2023-02-27T21:21:23.002Z,-1.15
2023-02-27T21:23:49.760Z,-1.16
2023-02-27T21:26:33.240Z,-1.17
2023-02-27T21:29:07.990Z,-1.15
2023-02-27T21:31:36.320Z,-1.11
2023-02-27T21:34:06.767Z,-1.09
2023-02-27T21:36:36.741Z,-1.10
2023-02-27T21:39:07.535Z,-1.07
2023-02-27T21:41:35.339Z,-1.10
2023-02-27T21:44:05.239Z,-1.14
2023-02-27T21:46:32.329Z,-1.14
2023-02-27T21:48:59.101Z,-1.11
2023-02-27T21:51:38.750Z,-1.11
2023-02-27T21:54:07.393Z,-1.17
2023-02-27T21:56:33.863Z,-1.16
2023-02-27T21:59:01.806Z,-1.17
2023-02-27T22:01:29.561Z,-1.20
2023-02-27T22:03:57.144Z,-1.22
2023-02-27T22:06:25.072Z,-1.22
2023-02-27T22:08:56.003Z,-1.28
2023-02-27T22:11:24.402Z,-1.25
2023-02-27T22:13:50.909Z,-1.25
2023-02-27T22:16:18.062Z,-1.30
2023-02-27T22:18:44.954Z,-1.27
2023-02-27T22:21:17.912Z,-1.27
2023-02-27T22:23:45.806Z,-1.28
2023-02-27T22:26:15.238Z,-1.27
2023-02-27T22:28:41.932Z,-1.31
2023-02-27T22:31:12.419Z,-1.33
2023-02-27T22:33:40.430Z,-1.30
2023-02-27T22:36:07.994Z,-1.29
2023-02-27T22:38:34.793Z,-1.29
2023-02-27T22:41:09.747Z,-1.30
2023-02-27T22:43:38.231Z,-1.31
2023-02-27T22:46:04.979Z,-1.25
2023-02-27T22:48:31.589Z,-1.32
2023-02-27T22:51:03.409Z,-1.28
2023-02-27T22:53:32.936Z,-1.31
2023-02-27T22:55:59.649Z,-1.34
2023-02-27T22:58:26.925Z,-1.33
2023-02-27T23:00:53.577Z,-1.32
2023-02-27T23:03:20.074Z,-1.30
2023-02-27T23:05:48.140Z,-1.28
2023-02-27T23:08:15.133Z,-1.28
2023-02-27T23:10:42.649Z,-1.29
2023-02-27T23:13:09.496Z,-1.30
2023-02-27T23:15:37.735Z,-1.30
2023-02-27T23:18:05.325Z,-1.32
2023-02-27T23:20:31.747Z,-1.31
2023-02-27T23:22:58.151Z,-1.28
2023-02-27T23:25:25.322Z,-1.31
2023-02-27T23:27:51.718Z,-1.35
2023-02-27T23:30:18.264Z,-1.35
2023-02-27T23:32:45.140Z,-1.35
2023-02-27T23:35:25.228Z,-1.39
2023-02-27T23:37:53.144Z,-1.33
2023-02-27T23:40:21.025Z,-1.37
2023-02-27T23:42:47.484Z,-1.38
2023-02-27T23:45:23.029Z,-1.38
2023-02-27T23:47:54.585Z,-1.40
2023-02-27T23:50:23.894Z,-1.40
2023-02-27T23:52:52.281Z,-1.40
2023-02-27T23:55:21.123Z,-1.42
2023-02-27T23:57:51.731Z,-1.41
